Time;durP1;ratioP1;P1;durP2;ratioP2;P2;SDS_P1;SDS_P2;PMS_P1;PMS_P2;Temp;Humidity;BMP_temperature;BMP_pressure;BME280_temperature;BME280_humidity;BME280_pressure;Samples;Min_cycle;Max_cycle;Signal;HPM_P1;HPM_P2
2022/07/21 00:00:17;;;;;;;13.38;11.07;;;;;;;19.19;85.17;101664.25;4971449;28;20046;-74
2022/07/21 00:02:43;;;;;;;12.52;11.00;;;;;;;19.24;84.90;101658.50;4971930;28;20033;-75
2022/07/21 00:05:08;;;;;;;12.75;11.43;;;;;;;19.20;84.92;101660.59;4955295;28;20041;-74
2022/07/21 00:07:34;;;;;;;12.43;11.20;;;;;;;19.13;85.13;101664.03;4972398;28;20387;-74
2022/07/21 00:09:59;;;;;;;11.80;10.70;;;;;;;19.04;85.56;101666.59;4954523;28;20038;-73
2022/07/21 00:12:24;;;;;;;11.63;10.50;;;;;;;19.05;85.70;101672.78;4971920;28;20026;-74
2022/07/21 00:14:50;;;;;;;12.23;10.93;;;;;;;19.00;85.90;101664.38;4972270;28;20105;-73
2022/07/21 00:17:18;;;;;;;11.88;10.57;;;;;;;18.95;85.93;101666.66;4971550;28;20031;-74
2022/07/21 00:19:43;;;;;;;11.25;10.15;;;;;;;18.94;86.00;101655.16;4972042;28;20026;-74
2022/07/21 00:22:09;;;;;;;11.95;10.95;;;;;;;18.91;86.21;101651.94;4972156;28;20475;-74
2022/07/21 00:24:34;;;;;;;12.82;10.20;;;;;;;18.89;86.25;101662.75;4970888;28;20284;-74
2022/07/21 00:26:59;;;;;;;12.20;10.13;;;;;;;18.92;86.06;101661.63;4971936;28;20023;-74
2022/07/21 00:29:25;;;;;;;11.73;10.63;;;;;;;18.81;86.60;101667.97;4953618;28;20034;-74
2022/07/21 00:31:50;;;;;;;13.63;11.48;;;;;;;18.83;86.61;101665.19;4971421;28;20029;-74
2022/07/21 00:34:18;;;;;;;11.32;10.18;;;;;;;18.79;86.76;101662.78;4971805;28;20090;-74
2022/07/21 00:36:44;;;;;;;11.90;10.80;;;;;;;18.77;86.86;101662.09;4970274;28;20415;-74
2022/07/21 00:39:09;;;;;;;12.20;11.00;;;;;;;18.82;86.51;101666.16;4952255;29;20043;-74
2022/07/21 00:41:34;;;;;;;12.27;11.07;;;;;;;18.81;86.36;101667.13;4951978;29;20122;-74
2022/07/21 00:44:00;;;;;;;12.13;10.88;;;;;;;18.69;87.26;101675.31;4951593;29;20134;-73
2022/07/21 00:46:25;;;;;;;12.38;11.13;;;;;;;18.75;86.78;101672.06;4952228;29;20051;-74
2022/07/21 00:48:50;;;;;;;12.32;11.02;;;;;;;18.73;86.97;101668.69;4952348;29;20091;-74
2022/07/21 00:51:19;;;;;;;12.65;11.52;;;;;;;18.63;87.78;101667.06;4934107;29;20783;-74
2022/07/21 00:53:44;;;;;;;12.20;10.98;;;;;;;18.63;87.73;101662.56;4953714;29;20475;-73
2022/07/21 00:56:10;;;;;;;11.70;10.60;;;;;;;18.65;87.32;101665.09;4954357;28;20037;-73
2022/07/21 00:58:35;;;;;;;13.25;11.85;;;;;;;18.59;87.99;101661.16;4952773;28;20027;-74
2022/07/21 01:01:01;;;;;;;13.43;12.02;;;;;;;18.60;87.85;101660.16;4970273;28;20050;-73
2022/07/21 01:03:29;;;;;;;13.23;11.73;;;;;;;18.59;87.89;101655.81;4971819;28;20030;-73
2022/07/21 01:05:54;;;;;;;14.40;11.80;;;;;;;18.51;88.42;101647.72;4954963;28;20105;-73
2022/07/21 01:08:20;;;;;;;12.63;11.35;;;;;;;18.54;88.23;101642.09;4971723;28;20033;-74
2022/07/21 01:10:45;;;;;;;13.70;12.30;;;;;;;18.50;88.40;101643.38;4972499;28;20029;-73
2022/07/21 01:13:11;;;;;;;13.75;12.35;;;;;;;18.42;89.14;101637.94;4971011;28;20031;-73
2022/07/21 01:15:36;;;;;;;14.35;12.45;;;;;;;18.36;89.38;101638.50;4971191;28;20034;-74
2022/07/21 01:18:02;;;;;;;14.93;13.45;;;;;;;18.39;89.66;101641.72;4971895;28;20023;-73
2022/07/21 01:20:34;;;;;;;13.43;12.13;;;;;;;18.45;89.01;101640.31;4970270;28;20027;-73
2022/07/21 01:22:59;;;;;;;13.80;12.48;;;;;;;18.48;88.62;101634.69;4971419;28;20054;-73
2022/07/21 01:25:25;;;;;;;14.00;12.70;;;;;;;18.46;88.76;101634.84;4953794;28;20058;-73
2022/07/21 01:27:50;;;;;;;13.73;12.32;;;;;;;18.38;89.17;101639.19;4970940;28;20037;-74
2022/07/21 01:30:19;;;;;;;15.13;12.85;;;;;;;18.41;89.20;101636.22;4953856;28;20019;-74
2022/07/21 01:32:45;;;;;;;15.43;13.75;;;;;;;18.35;89.54;101637.66;4971625;28;20031;-74
2022/07/21 01:35:14;;;;;;;14.73;13.20;;;;;;;18.33;89.77;101639.63;4970805;28;20764;-74
2022/07/21 01:37:43;;;;;;;14.85;13.32;;;;;;;18.34;90.07;101646.63;4962115;28;20031;-74
2022/07/21 01:42:55;;;;;;;14.85;13.45;;;;;;;18.36;89.43;101634.00;4956533;29;20042;-73
2022/07/21 01:45:22;;;;;;;15.45;13.82;;;;;;;18.35;89.78;101628.81;4955326;29;20031;-73
2022/07/21 01:47:47;;;;;;;14.80;13.40;;;;;;;18.44;89.54;101635.97;4955517;29;20053;-74
2022/07/21 01:50:13;;;;;;;16.77;14.20;;;;;;;18.30;90.00;101636.41;4955828;29;20465;-73
2022/07/21 01:52:38;;;;;;;14.70;13.30;;;;;;;18.34;90.29;101643.13;4955256;29;20027;-74
2022/07/21 01:55:04;;;;;;;15.90;14.40;;;;;;;18.35;89.98;101652.81;4937045;29;20442;-74
2022/07/21 01:57:30;;;;;;;14.57;13.18;;;;;;;18.34;90.05;101646.63;4966600;28;20371;-73
2022/07/21 01:59:55;;;;;;;15.80;14.20;;;;;;;18.30;90.92;101650.56;4973642;28;20022;-73
2022/07/21 02:02:21;;;;;;;15.48;13.45;;;;;;;18.38;90.16;101647.19;4973300;28;20042;-73
2022/07/21 02:04:49;;;;;;;14.88;13.38;;;;;;;18.38;89.98;101642.69;4974619;28;20191;-73
2022/07/21 02:07:18;;;;;;;15.23;13.63;;;;;;;18.36;90.49;101633.16;4975243;28;20054;-73
2022/07/21 02:09:43;;;;;;;15.02;13.63;;;;;;;18.33;90.50;101638.78;4975132;28;20101;-73
2022/07/21 02:12:09;;;;;;;14.95;13.50;;;;;;;18.33;90.76;101636.13;4975317;28;20507;-73
2022/07/21 02:14:34;;;;;;;15.55;14.02;;;;;;;18.29;90.80;101643.56;4974738;28;20125;-74
2022/07/21 02:17:00;;;;;;;16.83;15.13;;;;;;;18.21;91.37;101637.28;4973929;28;20037;-73
2022/07/21 02:19:25;;;;;;;15.63;14.23;;;;;;;18.28;91.06;101635.72;4974623;28;20110;-74
2022/07/21 02:21:50;;;;;;;16.77;14.82;;;;;;;18.31;91.25;101640.75;4974430;28;20031;-73
2022/07/21 02:24:18;;;;;;;15.70;14.20;;;;;;;18.25;91.31;101644.84;4974255;28;20078;-73
2022/07/21 02:26:44;;;;;;;17.20;15.07;;;;;;;18.22;91.54;101631.81;4974234;28;20168;-73
2022/07/21 02:29:09;;;;;;;16.58;14.93;;;;;;;18.17;91.88;101629.56;4974445;28;20019;-74
2022/07/21 02:31:34;;;;;;;16.95;15.25;;;;;;;18.24;91.73;101623.66;4956310;28;20109;-74
2022/07/21 02:34:00;;;;;;;17.10;15.45;;;;;;;18.15;92.08;101620.88;4974164;28;20466;-74
2022/07/21 02:36:26;;;;;;;17.02;15.32;;;;;;;18.14;92.36;101621.88;4972974;28;20382;-73
2022/07/21 02:38:51;;;;;;;18.85;16.08;;;;;;;18.15;92.38;101626.22;4938580;29;20062;-74
2022/07/21 02:41:17;;;;;;;17.95;16.13;;;;;;;18.19;92.22;101620.59;4953924;28;20039;-74
2022/07/21 02:43:42;;;;;;;17.83;16.00;;;;;;;18.20;92.00;101631.09;4937059;28;20480;-73
2022/07/21 02:46:07;;;;;;;18.30;16.50;;;;;;;18.24;91.70;101629.00;4954469;28;20543;-73
2022/07/21 02:48:33;;;;;;;18.63;16.80;;;;;;;18.21;92.09;101626.63;4953551;28;20023;-73
2022/07/21 02:50:58;;;;;;;19.15;17.17;;;;;;;18.16;92.42;101613.75;4953625;28;20051;-73
2022/07/21 02:53:23;;;;;;;18.55;16.75;;;;;;;18.20;92.34;101619.63;4954254;28;20035;-74
2022/07/21 02:55:54;;;;;;;20.17;17.50;;;;;;;18.17;92.54;101620.75;4936121;29;20391;-74
2022/07/21 02:58:23;;;;;;;19.33;17.42;;;;;;;18.13;92.88;101622.84;4971605;28;20019;-74
2022/07/21 03:00:52;;;;;;;21.13;17.42;;;;;;;18.13;92.76;101620.19;4973521;28;20050;-74
2022/07/21 03:03:17;;;;;;;20.17;18.17;;;;;;;18.17;92.79;101613.59;4955884;28;20030;-74
2022/07/21 03:05:43;;;;;;;19.83;17.73;;;;;;;18.21;92.48;101622.13;4973426;28;20443;-73
2022/07/21 03:08:10;;;;;;;22.25;18.55;;;;;;;18.21;92.58;101621.28;4974102;28;20042;-73
2022/07/21 03:10:37;;;;;;;19.42;17.27;;;;;;;18.27;92.15;101623.38;4973285;28;20027;-74
2022/07/21 03:13:03;;;;;;;20.33;17.50;;;;;;;18.29;91.87;101610.75;4973261;28;20035;-74
2022/07/21 03:15:29;;;;;;;21.65;18.17;;;;;;;18.28;91.76;101612.56;4969815;28;20074;-74
2022/07/21 03:17:55;;;;;;;19.85;17.75;;;;;;;18.24;92.26;101603.19;4954264;29;20023;-74
2022/07/21 03:20:25;;;;;;;19.42;16.80;;;;;;;18.29;92.05;101611.59;4935388;29;20111;-74
2022/07/21 03:22:51;;;;;;;22.00;17.02;;;;;;;18.30;91.48;101601.78;4952860;29;20023;-75
2022/07/21 03:25:16;;;;;;;19.92;18.00;;;;;;;18.30;91.60;101601.78;4953451;29;20298;-74
2022/07/21 03:27:42;;;;;;;19.65;17.58;;;;;;;18.33;91.41;101606.81;4953306;29;20027;-74
2022/07/21 03:30:09;;;;;;;20.30;17.88;;;;;;;18.29;91.66;101610.75;4953770;29;20015;-74
2022/07/21 03:32:35;;;;;;;18.63;16.77;;;;;;;18.27;91.75;101612.72;4952961;28;20023;-74
2022/07/21 03:35:00;;;;;;;21.85;17.60;;;;;;;18.27;91.69;101613.56;4953431;29;20050;-73
2022/07/21 03:37:26;;;;;;;19.23;16.67;;;;;;;18.28;91.57;101609.06;4958140;28;20031;-74
2022/07/21 03:39:51;;;;;;;20.08;17.98;;;;;;;18.29;91.64;101616.09;4952731;29;20121;-74
2022/07/21 03:42:17;;;;;;;18.33;16.40;;;;;;;18.29;91.54;101613.41;4952839;28;20039;-74
2022/07/21 03:44:42;;;;;;;21.00;16.35;;;;;;;18.32;91.10;101621.97;4953557;29;20035;-74
2022/07/21 03:47:07;;;;;;;19.42;17.33;;;;;;;18.31;91.22;101620.28;4951638;29;20026;-75
2022/07/21 03:49:33;;;;;;;20.20;17.23;;;;;;;18.24;91.68;101623.66;4952783;28;20119;-73
2022/07/21 03:51:58;;;;;;;19.13;17.13;;;;;;;18.24;91.47;101629.00;4953567;29;20122;-74
2022/07/21 03:54:24;;;;;;;20.02;16.25;;;;;;;18.30;91.20;101625.75;4952546;29;20030;-75
2022/07/21 03:56:49;;;;;;;21.50;16.20;;;;;;;18.27;91.23;101624.22;4952876;28;20118;-74
2022/07/21 03:59:14;;;;;;;17.70;15.90;;;;;;;18.25;91.10;101620.03;4952927;29;20082;-74
2022/07/21 04:01:40;;;;;;;21.50;16.23;;;;;;;18.29;91.13;101632.91;4915872;29;20056;-74
2022/07/21 04:04:05;;;;;;;19.60;16.20;;;;;;;18.34;90.64;101624.47;4943903;29;20472;-74
2022/07/21 04:06:30;;;;;;;20.35;16.17;;;;;;;18.34;90.42;101637.81;4952068;29;20034;-75
2022/07/21 04:08:56;;;;;;;19.17;15.30;;;;;;;18.34;90.25;101640.47;4952304;29;20019;-74
2022/07/21 04:11:21;;;;;;;18.13;14.85;;;;;;;18.32;90.40;101645.09;4952372;29;20074;-74
2022/07/21 04:13:46;;;;;;;19.48;15.23;;;;;;;18.30;90.73;101647.91;4953066;29;20263;-74
2022/07/21 04:16:12;;;;;;;20.17;15.50;;;;;;;18.33;91.79;101644.13;4952089;29;20102;-75
2022/07/21 04:18:37;;;;;;;19.45;15.50;;;;;;;18.32;91.66;101645.09;4952980;29;20376;-74
2022/07/21 04:21:03;;;;;;;20.33;16.25;;;;;;;18.33;92.48;101644.13;4953029;29;20031;-74
2022/07/21 04:23:29;;;;;;;19.05;15.73;;;;;;;18.30;91.88;101639.06;4951787;29;20368;-74
2022/07/21 04:25:54;;;;;;;18.20;15.02;;;;;;;18.33;92.34;101633.44;4953251;28;20030;-74
2022/07/21 04:28:19;;;;;;;17.33;15.40;;;;;;;18.28;93.34;101638.38;4950619;29;20114;-74
2022/07/21 04:30:45;;;;;;;17.48;15.50;;;;;;;18.29;93.48;101637.41;4952000;29;20340;-74
2022/07/21 04:33:10;;;;;;;17.48;15.68;;;;;;;18.30;93.92;101639.06;4951624;28;20066;-74
2022/07/21 04:35:35;;;;;;;19.83;16.52;;;;;;;18.24;93.69;101629.84;4949433;28;20556;-74
2022/07/21 04:38:01;;;;;;;19.20;15.55;;;;;;;18.24;93.63;101634.31;4964540;28;20085;-74
2022/07/21 04:40:27;;;;;;;19.08;16.08;;;;;;;18.19;93.49;101626.78;4936796;29;20045;-74
2022/07/21 04:42:52;;;;;;;18.27;15.07;;;;;;;18.20;93.07;101628.44;4953002;29;20031;-74
2022/07/21 04:45:18;;;;;;;20.30;15.30;;;;;;;18.23;93.26;101632.66;4951296;28;20472;-75
2022/07/21 04:47:52;;;;;;;22.52;16.23;;;;;;;18.23;94.99;101637.97;4952872;29;20025;-75
2022/07/21 04:50:20;;;;;;;21.63;16.75;;;;;;;18.19;95.86;101631.25;4951511;28;20220;-75
2022/07/21 04:52:46;;;;;;;21.30;16.50;;;;;;;18.15;96.26;101636.88;4952980;29;20023;-75
2022/07/21 04:55:12;;;;;;;20.83;16.58;;;;;;;18.12;97.10;101646.97;4952670;28;20034;-75
2022/07/21 04:57:45;;;;;;;23.02;16.20;;;;;;;18.15;96.77;101642.19;4959570;28;20098;-75
2022/07/21 05:00:23;;;;;;;18.45;15.93;;;;;;;18.12;96.08;101634.50;4952165;28;20039;-75
2022/07/21 05:02:49;;;;;;;17.95;15.60;;;;;;;18.08;96.27;101635.78;4952502;29;20023;-75
2022/07/21 05:05:18;;;;;;;20.73;17.10;;;;;;;18.09;96.91;101642.78;4952017;28;20019;-74
2022/07/21 05:07:43;;;;;;;19.15;15.70;;;;;;;18.08;96.84;101641.09;4952400;28;20034;-74
2022/07/21 05:10:14;;;;;;;18.85;15.50;;;;;;;18.07;96.92;101639.41;4952574;28;20045;-74
2022/07/21 05:12:39;;;;;;;17.67;15.60;;;;;;;18.14;96.89;101639.69;4951220;28;20414;-75
2022/07/21 05:15:06;;;;;;;18.92;15.48;;;;;;;18.13;96.85;101648.66;4952425;28;20101;-75
2022/07/21 05:17:32;;;;;;;19.50;15.18;;;;;;;18.13;96.57;101643.34;4951746;29;20031;-74
2022/07/21 05:19:58;;;;;;;18.00;15.13;;;;;;;18.15;96.03;101636.88;4951477;29;20019;-74
2022/07/21 05:22:24;;;;;;;20.38;14.80;;;;;;;18.19;96.25;101641.91;4952055;29;20027;-75
2022/07/21 05:24:49;;;;;;;17.63;14.95;;;;;;;18.20;96.50;101638.25;4951937;29;20024;-74
2022/07/21 05:27:14;;;;;;;16.17;14.07;;;;;;;18.13;95.55;101640.66;4951779;29;20031;-75
2022/07/21 05:29:40;;;;;;;19.70;15.00;;;;;;;18.09;96.00;101636.59;4950149;29;20106;-75
2022/07/21 05:32:05;;;;;;;20.02;14.38;;;;;;;18.06;96.37;101632.41;4951116;28;20034;-75
2022/07/21 05:34:30;;;;;;;17.45;14.75;;;;;;;18.10;96.20;101628.47;4923456;29;20023;-75
2022/07/21 05:36:56;;;;;;;18.02;14.45;;;;;;;18.09;96.17;101629.47;4949442;28;20098;-75
2022/07/21 05:39:21;;;;;;;19.42;14.93;;;;;;;18.08;96.21;101629.59;4950938;29;20078;-75
2022/07/21 05:41:47;;;;;;;18.80;15.45;;;;;;;18.12;96.04;101626.50;4951838;29;20383;-75
2022/07/21 05:44:12;;;;;;;22.60;14.63;;;;;;;18.16;95.86;101621.72;4951951;29;20499;-74
2022/07/21 05:46:38;;;;;;;19.67;15.07;;;;;;;18.22;95.37;101620.31;4921215;29;20385;-75
2022/07/21 05:49:03;;;;;;;19.85;13.93;;;;;;;18.25;94.94;101617.34;4950604;29;20012;-75
2022/07/21 05:51:28;;;;;;;20.90;15.02;;;;;;;18.24;94.60;101624.50;4951766;28;20043;-74
2022/07/21 05:53:54;;;;;;;18.98;15.27;;;;;;;18.24;95.33;101621.84;4954315;28;20036;-75
2022/07/21 05:56:19;;;;;;;22.77;16.50;;;;;;;18.31;94.93;101624.78;4955115;28;20483;-75
2022/07/21 05:58:44;;;;;;;27.35;16.17;;;;;;;18.27;94.06;101628.72;4957821;28;20027;-74
2022/07/21 06:01:12;;;;;;;23.65;17.60;;;;;;;18.27;93.85;101631.38;4933996;28;20081;-74
2022/07/21 06:03:43;;;;;;;24.95;18.00;;;;;;;18.28;94.06;101633.06;4951888;29;20024;-74
2022/07/21 06:06:10;;;;;;;27.67;18.95;;;;;;;18.33;94.22;101641.44;4952561;29;20031;-75
2022/07/21 06:08:38;;;;;;;26.13;18.65;;;;;;;18.37;94.48;101629.50;4951654;28;20433;-74
2022/07/21 06:11:03;;;;;;;29.30;19.65;;;;;;;18.41;94.11;101629.09;4952375;29;20019;-74
2022/07/21 06:13:29;;;;;;;28.63;20.02;;;;;;;18.51;92.71;101626.41;4951710;29;20031;-74
2022/07/21 06:15:54;;;;;;;29.17;20.63;;;;;;;18.64;92.37;101624.28;4951473;28;20110;-74
2022/07/21 06:18:19;;;;;;;29.88;21.10;;;;;;;18.77;91.17;101626.59;4951900;28;20019;-72
2022/07/21 06:20:45;;;;;;;33.47;21.35;;;;;;;18.95;91.09;101624.00;4952018;28;20067;-74
2022/07/21 06:23:10;;;;;;;31.23;21.55;;;;;;;19.14;90.85;101626.53;4952029;28;20030;-74
2022/07/21 06:25:35;;;;;;;29.80;22.10;;;;;;;19.24;88.77;101630.00;4950070;28;20039;-74
2022/07/21 06:28:01;;;;;;;29.40;20.85;;;;;;;19.40;88.33;101622.16;4956314;29;20037;-75
2022/07/21 06:30:26;;;;;;;33.58;22.95;;;;;;;19.40;87.59;101622.16;4952776;29;20047;-74
2022/07/21 06:32:51;;;;;;;31.92;22.83;;;;;;;19.46;87.17;101627.88;4955641;29;20031;-74
2022/07/21 06:35:17;;;;;;;33.40;22.17;;;;;;;19.49;86.68;101625.72;4954904;29;20023;-74
2022/07/21 06:37:46;;;;;;;30.85;21.92;;;;;;;19.54;86.64;101626.13;4954981;28;20027;-74
2022/07/21 06:40:13;;;;;;;33.58;22.60;;;;;;;19.46;86.40;101633.19;4954891;28;20066;-74
2022/07/21 06:42:38;;;;;;;28.20;21.63;;;;;;;19.49;87.07;101632.91;4953544;29;20027;-74
2022/07/21 06:45:04;;;;;;;31.95;21.90;;;;;;;19.47;87.15;101635.72;4955307;29;20069;-74
2022/07/21 06:47:29;;;;;;;30.95;22.27;;;;;;;19.48;86.92;101637.41;4931967;29;20086;-74
2022/07/21 06:49:55;;;;;;;33.08;22.77;;;;;;;19.47;85.99;101634.88;4947097;28;20031;-73
2022/07/21 06:52:20;;;;;;;29.83;21.50;;;;;;;19.44;86.06;101632.50;4954578;29;20015;-74
2022/07/21 06:54:46;;;;;;;26.95;20.70;;;;;;;19.49;86.27;101643.56;4955294;28;20035;-74
2022/07/21 06:57:13;;;;;;;32.15;21.73;;;;;;;19.55;86.48;101645.66;4962864;28;20026;-74
2022/07/21 06:59:38;;;;;;;36.13;22.33;;;;;;;19.49;86.26;101656.91;4954043;28;20035;-74
2022/07/21 07:02:03;;;;;;;36.97;21.65;;;;;;;19.47;86.92;101649.06;4954955;28;20071;-74
2022/07/21 07:04:29;;;;;;;28.52;21.27;;;;;;;19.52;86.23;101660.13;4922899;29;20026;-74
2022/07/21 07:06:55;;;;;;;31.30;22.15;;;;;;;19.40;86.62;101667.53;4955540;29;20038;-74
2022/07/21 07:09:20;;;;;;;28.15;21.05;;;;;;;19.27;86.33;101667.06;4953839;28;20403;-74
2022/07/21 07:11:46;;;;;;;31.85;21.90;;;;;;;19.19;86.97;101666.94;4954188;28;20023;-74
2022/07/21 07:14:13;;;;;;;31.27;21.77;;;;;;;19.10;87.42;101668.69;4955254;29;20033;-74
2022/07/21 07:16:39;;;;;;;31.58;22.38;;;;;;;19.01;88.05;101660.72;4919742;29;20024;-74
2022/07/21 07:19:05;;;;;;;32.97;22.08;;;;;;;18.95;88.04;101654.16;4934600;29;20076;-74
2022/07/21 07:21:30;;;;;;;32.17;22.90;;;;;;;18.95;88.40;101661.31;4949806;29;20023;-74
2022/07/21 07:23:56;;;;;;;32.85;21.48;;;;;;;18.96;88.55;101657.66;4954471;29;20113;-74
2022/07/21 07:26:21;;;;;;;30.25;21.65;;;;;;;18.95;88.48;101661.31;4952951;29;20027;-74
2022/07/21 07:28:46;;;;;;;35.63;22.48;;;;;;;18.97;89.05;101664.69;4918119;29;20079;-74
2022/07/21 07:31:12;;;;;;;25.88;20.60;;;;;;;19.03;88.58;101659.59;4946237;28;20031;-73
2022/07/21 07:33:37;;;;;;;28.95;21.67;;;;;;;19.02;89.18;101663.25;4952683;29;20054;-73
2022/07/21 07:36:03;;;;;;;27.77;21.52;;;;;;;19.00;91.29;101659.06;4952705;29;20081;-74
2022/07/21 07:38:28;;;;;;;26.58;20.67;;;;;;;18.94;92.48;101667.66;4952236;28;20520;-74
2022/07/21 07:40:53;;;;;;;30.60;21.83;;;;;;;18.84;94.53;101661.53;4953565;29;20091;-75
2022/07/21 07:43:19;;;;;;;29.73;21.20;;;;;;;18.74;95.31;101664.22;4953683;29;20035;-73
2022/07/21 07:45:44;;;;;;;22.90;19.42;;;;;;;18.66;96.26;101656.94;4953923;29;20038;-74
2022/07/21 07:48:09;;;;;;;28.40;20.50;;;;;;;18.61;97.22;101663.69;4953562;29;20055;-73
2022/07/21 07:50:35;;;;;;;23.42;19.80;;;;;;;18.48;98.14;101666.66;4952879;29;20490;-73
2022/07/21 07:53:00;;;;;;;22.13;16.67;;;;;;;18.36;98.64;101671.31;4953256;28;20365;-74
2022/07/21 07:55:25;;;;;;;18.73;16.73;;;;;;;18.29;99.18;101674.69;4953543;29;20539;-74
2022/07/21 07:57:51;;;;;;;19.42;16.75;;;;;;;18.23;99.53;101667.28;4962159;28;20034;-74
2022/07/21 08:00:18;;;;;;;18.42;15.25;;;;;;;18.27;100.00;101666.84;4935305;28;20139;-73
2022/07/21 08:02:43;;;;;;;17.80;15.95;;;;;;;18.25;100.00;101655.50;4953514;29;20030;-74
2022/07/21 08:05:10;;;;;;;16.55;14.65;;;;;;;18.19;100.00;101669.38;4953961;29;20138;-74
2022/07/21 08:07:37;;;;;;;14.65;13.07;;;;;;;18.07;100.00;101660.72;4952209;28;20541;-74
2022/07/21 08:10:05;;;;;;;15.32;13.73;;;;;;;18.08;100.00;101672.22;4953762;28;20102;-74
2022/07/21 08:12:30;;;;;;;14.32;12.82;;;;;;;18.01;100.00;101669.28;4952962;28;20471;-74
2022/07/21 08:14:56;;;;;;;13.60;12.05;;;;;;;18.04;100.00;101663.66;4952751;29;20017;-75
2022/07/21 08:17:21;;;;;;;15.65;12.27;;;;;;;18.06;100.00;101668.84;4952872;29;20127;-75
2022/07/21 08:19:46;;;;;;;13.20;11.80;;;;;;;18.06;100.00;101672.34;4953211;28;20027;-75
2022/07/21 08:22:12;;;;;;;12.68;11.27;;;;;;;18.04;100.00;101663.66;4952709;29;20023;-74
2022/07/21 08:24:37;;;;;;;11.75;10.65;;;;;;;18.04;100.00;101671.66;4954997;29;20051;-75
2022/07/21 08:27:03;;;;;;;11.75;10.55;;;;;;;18.10;100.00;101670.25;4952971;29;20031;-75
2022/07/21 08:29:28;;;;;;;11.80;10.60;;;;;;;18.12;100.00;101677.13;4952107;29;20023;-74
2022/07/21 08:31:53;;;;;;;11.15;10.00;;;;;;;18.14;100.00;101669.81;4953818;29;20415;-75
2022/07/21 08:34:19;;;;;;;11.50;9.80;;;;;;;18.15;100.00;101666.19;4954786;29;20479;-74
2022/07/21 08:36:44;;;;;;;12.02;10.80;;;;;;;18.24;100.00;101666.28;4952880;28;20073;-74
2022/07/21 08:39:09;;;;;;;12.60;11.27;;;;;;;18.16;100.00;101667.84;4952432;29;20028;-74
2022/07/21 08:41:36;;;;;;;18.33;12.38;;;;;;;18.16;100.00;101678.50;4952521;29;20074;-74
2022/07/21 08:44:01;;;;;;;13.80;12.02;;;;;;;18.17;100.00;101674.03;4938958;29;20050;-72
2022/07/21 08:46:28;;;;;;;14.95;12.95;;;;;;;18.12;100.00;101677.13;4952421;29;20023;-73
2022/07/21 08:48:53;;;;;;;15.07;13.48;;;;;;;18.14;100.00;101672.47;4952658;28;20023;-73
2022/07/21 08:51:19;;;;;;;15.02;13.40;;;;;;;18.12;100.00;101674.44;4951751;29;20034;-73
2022/07/21 08:53:46;;;;;;;15.30;13.43;;;;;;;18.12;100.00;101678.94;4952905;28;20019;-74
2022/07/21 08:56:12;;;;;;;15.52;13.98;;;;;;;18.15;100.00;101676.81;4954224;28;20023;-73
2022/07/21 08:58:37;;;;;;;15.40;13.80;;;;;;;18.12;100.00;101678.94;4958274;28;20038;-73
2022/07/21 09:01:03;;;;;;;16.63;14.02;;;;;;;18.13;100.00;101681.47;4949508;29;20047;-73
2022/07/21 09:03:32;;;;;;;15.98;14.48;;;;;;;18.13;100.00;101684.13;4951511;29;20050;-73
2022/07/21 09:06:07;;;;;;;15.93;14.32;;;;;;;18.12;100.00;101677.13;4952490;28;20030;-73
2022/07/21 09:08:34;;;;;;;15.18;13.68;;;;;;;18.16;100.00;101678.50;4934860;29;20081;-73
2022/07/21 09:11:17;;;;;;;13.13;11.80;;;;;;;18.23;100.00;101681.44;4951383;28;20030;-73
2022/07/21 09:13:44;;;;;;;14.52;13.13;;;;;;;18.23;100.00;101684.09;4940724;29;20519;-74
2022/07/21 09:16:10;;;;;;;15.30;13.73;;;;;;;18.31;100.00;101683.38;4952605;29;20110;-74
2022/07/21 09:18:48;;;;;;;15.18;13.50;;;;;;;18.29;100.00;101682.69;4951452;28;20110;-73
2022/07/21 09:21:18;;;;;;;14.40;13.00;;;;;;;18.32;100.00;101682.41;4952187;29;20043;-73
2022/07/21 09:23:44;;;;;;;14.52;13.05;;;;;;;18.35;100.00;101687.44;4922243;29;20026;-73
2022/07/21 09:26:10;;;;;;;14.88;13.57;;;;;;;18.38;100.00;101689.81;4952627;29;20035;-73
2022/07/21 09:28:35;;;;;;;14.00;12.60;;;;;;;18.38;100.00;101690.66;4951408;29;20425;-73
2022/07/21 09:31:03;;;;;;;14.55;12.93;;;;;;;18.38;100.00;101693.31;4952187;29;20034;-73
2022/07/21 09:33:31;;;;;;;11.88;10.77;;;;;;;18.35;100.00;101690.09;4951116;29;20087;-72
2022/07/21 09:36:08;;;;;;;9.68;8.73;;;;;;;18.32;100.00;101698.38;4952344;29;20471;-73
2022/07/21 09:38:39;;;;;;;9.43;8.35;;;;;;;18.23;100.00;101697.44;4951097;28;20030;-74
2022/07/21 09:41:12;;;;;;;8.93;7.57;;;;;;;18.22;100.00;101702.91;4952107;29;20031;-74
2022/07/21 09:43:45;;;;;;;7.72;6.88;;;;;;;18.19;100.00;101711.16;4951872;28;20023;-74
2022/07/21 13:31:35;;;;;;;5.82;4.40;;;;;;;17.92;100.00;101824.56;5121593;27;20378;-74
2022/07/21 13:34:00;;;;;;;5.25;4.20;;;;;;;17.90;100.00;101823.84;5122108;28;20032;-74
2022/07/21 13:36:26;;;;;;;6.00;4.38;;;;;;;17.96;100.00;101820.63;5125634;27;20499;-74
2022/07/21 13:38:51;;;;;;;5.60;4.00;;;;;;;18.09;100.00;101821.22;5124637;27;20110;-74
2022/07/21 13:41:17;;;;;;;6.45;4.50;;;;;;;18.23;100.00;101824.47;5122513;27;20023;-74
2022/07/21 13:43:42;;;;;;;7.60;4.70;;;;;;;18.33;100.00;101826.13;5115237;27;20070;-74
2022/07/21 13:46:08;;;;;;;8.77;5.07;;;;;;;18.34;100.00;101819.00;5106646;28;20015;-74
2022/07/21 13:48:33;;;;;;;7.45;5.18;;;;;;;18.37;100.00;101824.88;5104851;28;20024;-74
2022/07/21 13:50:59;;;;;;;8.00;4.93;;;;;;;18.42;100.00;101827.16;5106183;28;20022;-75
2022/07/21 13:53:24;;;;;;;8.80;5.22;;;;;;;18.48;100.00;101830.09;5112519;28;20019;-74
2022/07/21 13:55:53;;;;;;;8.82;5.00;;;;;;;18.45;100.00;101822.38;5126797;27;20381;-75
2022/07/21 13:58:18;;;;;;;8.20;4.85;;;;;;;18.46;100.00;101821.41;5126210;27;20437;-75
2022/07/21 14:03:20;;;;;;;9.57;5.57;;;;;;;18.40;100.00;101823.75;5188266;22;20055;-89
2022/07/21 14:08:20;;;;;;;10.75;5.70;;;;;;;18.35;100.00;101820.66;5225275;22;20047;-80
2022/07/21 14:10:46;;;;;;;8.40;5.72;;;;;;;18.39;100.00;101830.91;5087788;28;20062;-79
2022/07/21 14:13:11;;;;;;;8.00;5.88;;;;;;;18.37;100.00;101832.03;5104320;28;20056;-79
2022/07/21 14:21:28;;;;;;;11.77;5.93;;;;;;;18.27;100.00;101832.03;4862355;26;20050;-93
2022/07/21 14:26:39;;;;;;;10.95;6.50;;;;;;;18.23;100.00;101835.13;5047031;28;20044;-93
2022/07/21 14:29:05;;;;;;;13.27;6.25;;;;;;;18.17;100.00;101842.69;5047211;28;20028;-93
2022/07/21 14:31:31;;;;;;;10.65;6.30;;;;;;;18.14;100.00;101850.97;5038930;28;20359;-92
2022/07/21 14:33:57;;;;;;;9.50;5.75;;;;;;;18.09;100.00;101839.88;5032188;28;20021;-93
2022/07/21 14:36:26;;;;;;;9.32;6.20;;;;;;;18.08;100.00;101853.34;5032851;28;20021;-93
2022/07/21 14:38:51;;;;;;;9.18;6.00;;;;;;;18.03;100.00;101844.91;5034004;28;20021;-92
2022/07/21 14:41:20;;;;;;;13.82;6.25;;;;;;;18.02;100.00;101854.72;5031468;28;20079;-92
2022/07/21 14:43:54;;;;;;;11.00;6.97;;;;;;;17.96;100.00;101857.91;5033066;28;20040;-92
2022/07/21 14:46:26;;;;;;;8.77;6.43;;;;;;;17.97;100.00;101859.59;5032447;28;20033;-93
2022/07/21 14:48:51;;;;;;;12.93;7.68;;;;;;;17.93;100.00;101855.53;5026069;28;20228;-93
2022/07/21 14:51:16;;;;;;;13.23;8.38;;;;;;;17.94;100.00;101857.22;5025538;28;20033;-92
2022/07/21 14:53:43;;;;;;;12.45;9.15;;;;;;;17.95;100.00;101863.38;5065683;28;20022;-92
2022/07/21 14:56:08;;;;;;;13.30;10.18;;;;;;;17.87;100.00;101861.41;5032575;28;20048;-92
2022/07/21 14:58:34;;;;;;;17.88;10.93;;;;;;;17.94;100.00;101865.19;5033362;28;20061;-93
2022/07/21 15:01:00;;;;;;;15.07;11.38;;;;;;;17.88;100.00;101868.41;5032803;28;20068;-93
2022/07/21 15:03:26;;;;;;;15.90;11.30;;;;;;;17.92;100.00;101872.47;5032752;28;20056;-94
2022/07/21 15:05:52;;;;;;;12.55;9.93;;;;;;;17.94;100.00;101867.84;5032071;28;20483;-93